Time;durP1;ratioP1;P1;durP2;ratioP2;P2;SDS_P1;SDS_P2;PMS_P1;PMS_P2;Temp;Humidity;BMP_temperature;BMP_pressure;BME280_temperature;BME280_humidity;BME280_pressure;Samples;Min_cycle;Max_cycle;Signal;HPM_P1;HPM_P2
2023/02/08 00:00:14;;;;;;;189.00;80.40;;;;;;;-3.88;100.00;100375.77;106275;1255;61362;-78
2023/02/08 00:03:00;;;;;;;185.00;84.60;;;;;;;-3.90;100.00;100373.14;106312;1257;61337;-78
2023/02/08 00:05:27;;;;;;;184.60;85.60;;;;;;;-3.91;100.00;100381.59;106347;1251;61770;-77
2023/02/08 00:07:53;;;;;;;197.70;93.30;;;;;;;-3.91;100.00;100384.05;106349;1256;61332;-78
2023/02/08 00:10:20;;;;;;;197.90;90.50;;;;;;;-3.91;100.00;100390.57;106326;1251;61243;-78
2023/02/08 00:12:46;;;;;;;191.60;93.60;;;;;;;-3.92;100.00;100389.77;106286;1255;61445;-78
2023/02/08 00:15:12;;;;;;;175.10;81.20;;;;;;;-3.89;100.00;100388.29;106280;1251;61087;-78
2023/02/08 00:17:39;;;;;;;182.20;78.90;;;;;;;-3.90;100.00;100391.39;106282;1251;61722;-78
2023/02/08 00:20:05;;;;;;;193.40;83.80;;;;;;;-3.93;100.00;100390.20;106363;1251;61250;-77
2023/02/08 00:22:32;;;;;;;188.00;79.90;;;;;;;-3.97;100.00;100387.17;106306;1257;61346;-78
2023/02/08 00:24:59;;;;;;;186.10;81.60;;;;;;;-3.97;100.00;100388.57;106294;1257;61439;-77
2023/02/08 00:27:25;;;;;;;195.10;79.50;;;;;;;-3.95;100.00;100382.74;106304;1251;61355;-77
2023/02/08 00:29:51;;;;;;;185.90;83.10;;;;;;;-3.96;100.00;100384.08;106348;1252;61253;-78
2023/02/08 00:32:18;;;;;;;198.20;88.00;;;;;;;-3.98;100.00;100383.35;106307;1253;61425;-78
2023/02/08 00:34:44;;;;;;;195.70;90.30;;;;;;;-3.95;100.00;100383.45;106287;1251;61313;-78
2023/02/08 00:37:11;;;;;;;191.60;88.70;;;;;;;-3.91;100.00;100378.75;106272;1251;61192;-77
2023/02/08 00:39:37;;;;;;;174.10;76.70;;;;;;;-3.90;100.00;100386.20;106328;1251;61243;-77
2023/02/08 00:42:04;;;;;;;194.70;86.30;;;;;;;-3.96;100.00;100386.90;106287;1251;61333;-78
2023/02/08 00:44:30;;;;;;;181.80;80.10;;;;;;;-3.99;100.00;100383.09;106197;1256;61429;-78
2023/02/08 00:46:56;;;;;;;182.70;81.70;;;;;;;-4.00;100.00;100380.11;106261;1256;61339;-78
2023/02/08 00:49:23;;;;;;;216.00;94.70;;;;;;;-4.00;100.00;100377.65;106294;1251;61228;-78
2023/02/08 00:51:49;;;;;;;200.80;93.40;;;;;;;-3.98;100.00;100378.52;106306;1251;61375;-78
2023/02/08 00:54:17;;;;;;;192.40;89.60;;;;;;;-3.95;100.00;100376.19;106277;1257;61247;-78
2023/02/08 00:56:43;;;;;;;220.10;98.20;;;;;;;-3.95;100.00;100378.15;106237;1256;61346;-78
2023/02/08 00:59:10;;;;;;;217.90;96.50;;;;;;;-3.95;100.00;100372.84;106294;1251;61223;-78
2023/02/08 01:01:37;;;;;;;214.80;96.80;;;;;;;-3.94;100.00;100377.01;106250;1257;61349;-79
2023/02/08 01:04:03;;;;;;;226.90;107.30;;;;;;;-3.92;100.00;100376.20;106341;1251;61227;-77
2023/02/08 01:06:30;;;;;;;212.80;98.10;;;;;;;-3.92;100.00;100377.55;106297;1257;61284;-78
2023/02/08 01:08:56;;;;;;;228.40;99.80;;;;;;;-3.93;100.00;100387.54;106208;1256;61330;-78
2023/02/08 01:11:26;;;;;;;216.80;104.60;;;;;;;-3.94;100.00;100383.05;106291;1256;61269;-77
2023/02/08 01:13:56;;;;;;;247.70;104.20;;;;;;;-3.96;100.00;100389.38;106277;1251;71192;-77
2023/02/08 01:16:24;;;;;;;200.40;94.20;;;;;;;-3.96;100.00;100387.09;106546;1251;61268;-78
2023/02/08 01:18:51;;;;;;;242.80;103.60;;;;;;;-3.98;100.00;100383.55;106287;1252;61195;-77
2023/02/08 01:21:20;;;;;;;248.80;106.60;;;;;;;-3.98;100.00;100381.77;106337;1251;73395;-78
2023/02/08 01:23:46;;;;;;;247.20;109.30;;;;;;;-3.96;100.00;100382.15;106299;1257;70200;-78
2023/02/08 01:26:14;;;;;;;232.10;105.50;;;;;;;-3.96;100.00;100386.55;106260;1254;72591;-78
2023/02/08 01:28:41;;;;;;;225.70;97.70;;;;;;;-3.95;100.00;100382.96;106383;1257;61211;-78
2023/02/08 01:31:11;;;;;;;221.60;100.90;;;;;;;-3.99;100.00;100383.23;106331;1251;61316;-78
2023/02/08 01:33:37;;;;;;;250.90;110.50;;;;;;;-4.02;100.00;100386.15;106289;1251;74488;-78
2023/02/08 01:36:04;;;;;;;227.20;96.70;;;;;;;-4.03;100.00;100391.11;106331;1256;61209;-78
2023/02/08 01:38:30;;;;;;;244.10;99.90;;;;;;;-4.01;100.00;100391.59;106302;1251;72530;-77
2023/02/08 01:40:57;;;;;;;218.50;93.80;;;;;;;-4.02;100.00;100392.30;106309;1257;61326;-77
2023/02/08 01:43:32;;;;;;;201.20;90.00;;;;;;;-4.00;100.00;100401.02;106322;1257;61399;-78
2023/02/08 01:45:58;;;;;;;227.90;102.40;;;;;;;-4.00;100.00;100397.81;106306;1255;65995;-77
2023/02/08 01:48:36;;;;;;;232.30;99.80;;;;;;;-4.00;100.00;100394.08;106363;1251;71510;-77
2023/02/08 01:51:14;;;;;;;218.10;96.20;;;;;;;-3.99;100.00;100387.86;106280;1251;63966;-77
2023/02/08 01:53:40;;;;;;;199.40;85.10;;;;;;;-3.98;100.00;100383.54;106372;1251;61256;-77
2023/02/08 01:56:09;;;;;;;204.90;88.50;;;;;;;-3.97;100.00;100397.05;106223;1251;61339;-78
2023/02/08 01:58:37;;;;;;;212.50;91.20;;;;;;;-3.99;100.00;100396.70;106339;1251;74626;-77
2023/02/08 02:01:03;;;;;;;211.80;87.90;;;;;;;-4.02;100.00;100398.13;106551;1257;71224;-78
2023/02/08 02:03:30;;;;;;;211.10;89.10;;;;;;;-4.01;100.00;100398.05;106279;1252;70875;-78
2023/02/08 02:06:00;;;;;;;218.30;90.80;;;;;;;-4.01;100.00;100394.93;106285;1257;61256;-78
2023/02/08 02:08:27;;;;;;;212.00;90.90;;;;;;;-4.02;100.00;100398.34;106328;1256;61150;-77
2023/02/08 02:10:53;;;;;;;219.90;93.40;;;;;;;-4.04;100.00;100400.64;106061;1259;61423;-78
2023/02/08 02:13:22;;;;;;;239.00;101.90;;;;;;;-4.05;100.00;100399.80;106346;1251;61382;-77
2023/02/08 02:15:48;;;;;;;238.30;103.00;;;;;;;-4.03;100.00;100395.56;106258;1257;71354;-78
2023/02/08 02:18:30;;;;;;;209.70;95.00;;;;;;;-3.98;100.00;100394.48;106280;1251;61656;-78
2023/02/08 02:21:06;;;;;;;221.20;98.70;;;;;;;-3.99;100.00;100398.80;106223;1256;61135;-77
2023/02/08 02:23:52;;;;;;;222.40;92.50;;;;;;;-4.00;100.00;100399.40;106336;1252;64981;-78
2023/02/08 02:26:41;;;;;;;224.40;98.00;;;;;;;-4.00;100.00;100397.48;106233;1257;61478;-77
2023/02/08 02:29:20;;;;;;;191.50;87.50;;;;;;;-4.02;100.00;100396.89;106307;1257;64068;-78
2023/02/08 02:31:49;;;;;;;;;;;;;;;-4.02;100.00;100396.39;106219;1251;61321;-78
2023/02/08 02:34:22;;;;;;;194.60;85.80;;;;;;;-4.02;100.00;100394.80;106317;1252;61129;-78
2023/02/08 02:37:07;;;;;;;190.90;83.80;;;;;;;-4.03;100.00;100395.46;106332;1256;74511;-77
2023/02/08 02:39:42;;;;;;;188.90;83.40;;;;;;;-4.05;100.00;100394.31;106331;1260;62580;-78
2023/02/08 02:45:03;;;;;;;190.20;84.60;;;;;;;-4.04;100.00;100387.57;106289;1253;61285;-78
2023/02/08 02:47:33;;;;;;;188.80;86.90;;;;;;;-4.04;100.00;100390.35;106302;1251;61237;-77
2023/02/08 02:50:21;;;;;;;215.10;93.70;;;;;;;-4.04;100.00;100394.92;106323;1253;73182;-77
2023/02/08 02:53:04;;;;;;;218.00;89.80;;;;;;;-4.01;100.00;100393.86;106367;1256;61321;-77
2023/02/08 02:55:33;;;;;;;202.10;93.20;;;;;;;-3.99;100.00;100393.86;106343;1257;63983;-78
2023/02/08 02:57:59;;;;;;;204.00;95.30;;;;;;;-3.97;100.00;100390.46;106448;1254;61244;-78
2023/02/08 03:00:26;;;;;;;207.30;97.20;;;;;;;-3.92;100.00;100396.33;106246;1257;61256;-78
2023/02/08 03:02:54;;;;;;;229.10;102.10;;;;;;;-3.90;100.00;100398.40;106231;1256;74456;-78
2023/02/08 03:05:21;;;;;;;198.70;89.20;;;;;;;-3.89;100.00;100402.37;106316;1255;70929;-77
2023/02/08 03:08:00;;;;;;;193.70;87.20;;;;;;;-3.89;100.00;100405.02;106213;1257;71745;-77
2023/02/08 03:10:53;;;;;;;198.50;92.70;;;;;;;-3.91;100.00;100408.19;106211;1251;61311;-78
2023/02/08 03:13:27;;;;;;;218.00;94.60;;;;;;;-3.89;100.00;100411.38;106252;1251;61241;-78
2023/02/08 03:16:15;;;;;;;222.90;98.50;;;;;;;-3.86;100.00;100417.46;106290;1257;74483;-77
2023/02/08 03:19:34;;;;;;;206.00;89.80;;;;;;;-3.85;100.00;100424.42;106227;1256;62416;-78
2023/02/08 03:22:33;;;;;;;222.80;95.50;;;;;;;-3.85;100.00;100424.09;105603;1264;62788;-78
2023/02/08 03:25:28;;;;;;;231.70;96.80;;;;;;;-3.83;100.00;100426.59;105656;1261;61419;-77
2023/02/08 03:28:26;;;;;;;209.90;95.10;;;;;;;-3.83;100.00;100431.40;106239;1257;61230;-78
2023/02/08 03:30:56;;;;;;;220.00;92.20;;;;;;;-3.83;100.00;100432.40;106142;1253;65323;-78
2023/02/08 03:33:27;;;;;;;222.20;97.60;;;;;;;-3.83;100.00;100432.23;106303;1257;69973;-78
2023/02/08 03:35:56;;;;;;;225.10;100.30;;;;;;;-3.82;100.00;100434.58;106010;1257;72796;-77
2023/02/08 03:38:26;;;;;;;225.30;102.70;;;;;;;-3.80;100.00;100431.63;106252;1266;61586;-78
2023/02/08 03:40:52;;;;;;;220.30;91.60;;;;;;;-3.78;100.00;100432.70;106242;1259;61221;-77
2023/02/08 03:43:43;;;;;;;217.30;93.80;;;;;;;-3.79;100.00;100432.61;106097;1252;74532;-78
2023/02/08 03:46:24;;;;;;;219.30;92.20;;;;;;;-3.79;100.00;100434.20;106290;1257;62346;-78
2023/02/08 03:48:54;;;;;;;212.10;96.60;;;;;;;-3.78;100.00;100430.36;106296;1256;62771;-78
2023/02/08 03:51:21;;;;;;;231.30;101.20;;;;;;;-3.75;100.00;100430.36;106307;1257;61861;-78
2023/02/08 03:53:47;;;;;;;211.00;95.50;;;;;;;-3.76;100.00;100428.48;106293;1257;61235;-77
2023/02/08 03:56:24;;;;;;;207.20;91.40;;;;;;;-3.76;100.00;100423.36;106096;1258;61333;-77
2023/02/08 03:58:55;;;;;;;205.70;87.60;;;;;;;-3.78;100.00;100427.95;106411;1251;61360;-78
2023/02/08 04:01:46;;;;;;;200.60;86.60;;;;;;;-3.78;100.00;100427.03;106186;1257;147117;-77
2023/02/08 04:04:13;;;;;;;197.80;85.30;;;;;;;-3.81;100.00;100425.04;106329;1251;61354;-78
2023/02/08 04:06:39;;;;;;;208.90;90.10;;;;;;;-3.82;100.00;100427.55;106224;1256;61211;-78
2023/02/08 04:09:06;;;;;;;204.00;91.50;;;;;;;-3.81;100.00;100424.52;106368;1259;74543;-78
2023/02/08 04:11:32;;;;;;;206.40;89.70;;;;;;;-3.79;100.00;100425.38;106314;1257;61334;-77
2023/02/08 04:13:58;;;;;;;211.50;90.40;;;;;;;-3.77;100.00;100424.65;106319;1256;61336;-77
2023/02/08 04:16:25;;;;;;;215.70;97.80;;;;;;;-3.74;100.00;100428.81;106317;1251;61345;-77
2023/02/08 04:18:51;;;;;;;213.70;98.30;;;;;;;-3.73;100.00;100428.92;106332;1257;61233;-78
2023/02/08 04:21:17;;;;;;;216.00;97.50;;;;;;;-3.72;100.00;100431.32;106320;1257;61873;-78
2023/02/08 04:23:44;;;;;;;196.70;85.70;;;;;;;-3.71;100.00;100436.90;106291;1256;61311;-78
2023/02/08 04:26:10;;;;;;;210.40;93.90;;;;;;;-3.71;100.00;100436.68;106311;1257;61260;-78
2023/02/08 04:28:37;;;;;;;218.40;95.00;;;;;;;-3.74;100.00;100428.47;106315;1251;61207;-77
2023/02/08 04:31:03;;;;;;;207.10;97.40;;;;;;;-3.72;100.00;100424.58;106310;1260;61384;-77
2023/02/08 04:33:29;;;;;;;216.80;96.70;;;;;;;-3.71;100.00;100423.45;106248;1257;62288;-77
2023/02/08 04:35:56;;;;;;;219.00;97.30;;;;;;;-3.69;100.00;100423.80;106264;1264;61266;-78
2023/02/08 04:38:22;;;;;;;220.10;102.60;;;;;;;-3.66;100.00;100426.42;106288;1251;61402;-78
2023/02/08 04:40:49;;;;;;;217.90;101.20;;;;;;;-3.64;100.00;100430.31;106291;1251;61355;-77
2023/02/08 04:43:15;;;;;;;227.70;103.30;;;;;;;-3.62;100.00;100429.56;106316;1257;61377;-78
2023/02/08 04:45:41;;;;;;;226.10;103.70;;;;;;;-3.61;100.00;100427.54;106302;1257;61327;-77
2023/02/08 04:48:08;;;;;;;220.00;107.30;;;;;;;-3.61;100.00;100425.41;106374;1256;61319;-78
2023/02/08 04:50:34;;;;;;;204.40;97.10;;;;;;;-3.59;100.00;100424.02;106300;1257;61314;-79
2023/02/08 04:53:01;;;;;;;208.30;92.60;;;;;;;-3.58;100.00;100426.92;106276;1251;61173;-78
2023/02/08 04:55:27;;;;;;;237.40;107.80;;;;;;;-3.57;100.00;100428.66;106280;1257;61326;-78
2023/02/08 04:57:53;;;;;;;209.70;95.70;;;;;;;-3.57;100.00;100419.84;106319;1256;61194;-78
2023/02/08 05:00:20;;;;;;;217.50;95.00;;;;;;;-3.57;100.00;100420.13;106266;1257;61330;-78
2023/02/08 05:02:46;;;;;;;226.70;105.00;;;;;;;-3.56;100.00;100420.77;106310;1251;61343;-78
2023/02/08 05:05:13;;;;;;;237.70;109.70;;;;;;;-3.55;100.00;100423.66;106305;1251;61352;-78
2023/02/08 05:07:39;;;;;;;227.70;106.90;;;;;;;-3.54;100.00;100421.27;106299;1257;61184;-78
2023/02/08 05:10:06;;;;;;;223.50;101.70;;;;;;;-3.54;100.00;100420.41;106232;1251;61353;-79
2023/02/08 05:12:33;;;;;;;200.20;95.60;;;;;;;-3.54;100.00;100419.88;106327;1257;61333;-78
2023/02/08 05:14:59;;;;;;;218.60;95.90;;;;;;;-3.52;100.00;100417.79;106263;1251;61288;-79
2023/02/08 05:17:26;;;;;;;214.50;97.80;;;;;;;-3.51;100.00;100419.10;106275;1251;61305;-79
2023/02/08 05:19:52;;;;;;;210.80;100.20;;;;;;;-3.51;100.00;100425.83;106332;1256;61718;-78
2023/02/08 05:22:18;;;;;;;206.20;98.90;;;;;;;-3.50;100.00;100425.40;106335;1251;61279;-78
2023/02/08 05:24:45;;;;;;;223.30;101.50;;;;;;;-3.51;100.00;100427.91;106290;1256;61266;-78
2023/02/08 05:27:11;;;;;;;205.90;95.50;;;;;;;-3.53;100.00;100433.02;106302;1255;61723;-78
2023/02/08 05:29:37;;;;;;;224.30;99.00;;;;;;;-3.55;100.00;100441.83;106299;1257;61330;-79
2023/02/08 05:32:04;;;;;;;216.50;101.60;;;;;;;-3.56;100.00;100447.64;106314;1251;61263;-79
2023/02/08 05:34:30;;;;;;;228.80;103.40;;;;;;;-3.61;100.00;100447.90;106382;1256;61247;-78
2023/02/08 05:36:57;;;;;;;241.10;108.90;;;;;;;-3.65;100.00;100444.35;106288;1251;72574;-79
2023/02/08 05:39:23;;;;;;;221.50;97.40;;;;;;;-3.66;100.00;100448.17;106277;1251;61212;-78
2023/02/08 05:41:49;;;;;;;203.90;93.20;;;;;;;-3.68;100.00;100459.79;106296;1251;62638;-78
2023/02/08 05:44:16;;;;;;;222.00;91.70;;;;;;;-3.72;100.00;100461.67;106313;1251;61331;-78
2023/02/08 05:46:42;;;;;;;217.90;92.90;;;;;;;-3.74;100.00;100469.28;106366;1257;61315;-78
2023/02/08 05:49:09;;;;;;;222.80;93.50;;;;;;;-3.79;100.00;100476.58;106275;1251;61341;-78
2023/02/08 05:51:35;;;;;;;212.40;91.20;;;;;;;-3.84;100.00;100479.86;106296;1254;62350;-79
2023/02/08 05:54:02;;;;;;;195.10;86.70;;;;;;;-3.83;100.00;100481.02;106300;1251;61800;-78
2023/02/08 05:56:28;;;;;;;201.20;86.20;;;;;;;-3.85;100.00;100484.02;106204;1255;61253;-78
2023/02/08 05:58:55;;;;;;;182.00;84.40;;;;;;;-3.84;100.00;100493.30;106255;1254;61287;-79
2023/02/08 06:01:21;;;;;;;194.60;84.90;;;;;;;-3.84;100.00;100493.08;106265;1251;61336;-78
2023/02/08 06:03:47;;;;;;;177.50;78.80;;;;;;;-3.81;100.00;100501.33;106344;1251;61418;-78
2023/02/08 06:06:14;;;;;;;181.40;84.80;;;;;;;-3.81;100.00;100498.15;106365;1257;61221;-79
2023/02/08 06:08:40;;;;;;;209.50;91.70;;;;;;;-3.81;100.00;100497.98;106259;1256;61273;-78
2023/02/08 06:11:07;;;;;;;212.30;92.30;;;;;;;-3.78;100.00;100502.98;106283;1251;61272;-78
2023/02/08 06:13:33;;;;;;;202.00;88.60;;;;;;;-3.74;100.00;100496.81;106338;1252;61330;-78
2023/02/08 06:15:59;;;;;;;203.00;89.90;;;;;;;-3.72;100.00;100497.52;106291;1256;61310;-78
2023/02/08 06:18:26;;;;;;;192.70;85.10;;;;;;;-3.69;100.00;100503.48;106205;1251;61296;-78
2023/02/08 06:20:53;;;;;;;192.70;84.70;;;;;;;-3.69;100.00;100506.98;106335;1251;61851;-78
2023/02/08 06:23:20;;;;;;;193.50;89.80;;;;;;;-3.70;100.00;100511.64;106299;1256;61336;-78
2023/02/08 06:25:46;;;;;;;210.30;99.90;;;;;;;-3.66;100.00;100516.20;106289;1251;61335;-79
2023/02/08 06:28:13;;;;;;;200.60;94.40;;;;;;;-3.65;100.00;100508.79;106293;1251;61265;-78
2023/02/08 06:30:39;;;;;;;206.40;91.60;;;;;;;-3.64;100.00;100511.02;106319;1251;61361;-78
2023/02/08 06:33:06;;;;;;;186.40;82.70;;;;;;;-3.64;100.00;100511.58;106218;1257;61247;-78
2023/02/08 06:35:32;;;;;;;198.00;89.00;;;;;;;-3.63;100.00;100519.95;106331;1251;61387;-78
2023/02/08 06:37:59;;;;;;;187.10;83.30;;;;;;;-3.64;100.00;100521.32;106306;1251;61207;-78
2023/02/08 06:40:25;;;;;;;184.80;81.50;;;;;;;-3.62;100.00;100524.31;106303;1251;61352;-78
2023/02/08 06:42:52;;;;;;;182.40;82.20;;;;;;;-3.62;100.00;100513.33;106300;1251;61260;-78
2023/02/08 06:45:18;;;;;;;171.10;76.90;;;;;;;-3.54;100.00;100513.94;106334;1251;61320;-79
2023/02/08 06:47:45;;;;;;;198.40;88.10;;;;;;;-3.47;100.00;100518.63;106334;1256;61275;-78
2023/02/08 06:50:11;;;;;;;208.60;94.80;;;;;;;-3.38;100.00;100523.16;106321;1251;61261;-80
2023/02/08 06:52:38;;;;;;;203.50;89.20;;;;;;;-3.26;100.00;100531.46;106602;1251;61314;-78
2023/02/08 06:55:05;;;;;;;195.80;89.40;;;;;;;-3.07;100.00;100528.48;106422;1256;61441;-79
2023/02/08 06:57:31;;;;;;;177.70;73.80;;;;;;;-2.92;100.00;100528.25;106590;1255;61275;-79
2023/02/08 06:59:58;;;;;;;166.60;75.90;;;;;;;-2.84;100.00;100527.13;107306;1254;61164;-78
2023/02/08 07:02:24;;;;;;;179.50;81.70;;;;;;;-2.83;100.00;100521.04;108892;1251;59154;-77
2023/02/08 07:04:51;;;;;;;173.90;78.80;;;;;;;-2.79;100.00;100520.40;106786;1251;60290;-77
2023/02/08 07:07:17;;;;;;;156.60;66.10;;;;;;;-2.73;100.00;100522.19;106655;1251;61275;-77
2023/02/08 07:09:44;;;;;;;117.50;54.90;;;;;;;-2.69;100.00;100519.55;106701;1256;61261;-77
2023/02/08 07:12:10;;;;;;;146.70;67.90;;;;;;;-2.67;100.00;100513.13;108895;1251;59135;-78
2023/02/08 07:14:41;;;;;;;148.40;70.30;;;;;;;-2.45;100.00;100509.92;107717;1251;61252;-79
2023/02/08 07:17:07;;;;;;;151.30;74.70;;;;;;;-2.36;100.00;100508.77;107507;1251;59732;-78
2023/02/08 07:19:34;;;;;;;142.30;65.90;;;;;;;-2.35;100.00;100514.67;108410;1252;60141;-79
2023/02/08 07:22:07;;;;;;;137.60;68.80;;;;;;;-2.26;100.00;100517.98;108341;1251;59877;-78
2023/02/08 07:24:35;;;;;;;127.30;61.20;;;;;;;-1.96;100.00;100517.63;108784;1251;70804;-79
2023/02/08 07:27:01;;;;;;;129.80;63.10;;;;;;;-1.75;100.00;100520.63;107170;1251;72644;-78
2023/02/08 07:29:29;;;;;;;149.70;71.00;;;;;;;-1.62;100.00;100518.91;107246;1251;61247;-79
2023/02/08 07:31:57;;;;;;;126.70;63.30;;;;;;;-1.67;100.00;100525.80;108902;1251;61160;-78
2023/02/08 07:34:23;;;;;;;125.40;60.00;;;;;;;-1.84;100.00;100530.55;109204;1251;72382;-78
2023/02/08 07:36:50;;;;;;;129.80;58.60;;;;;;;-1.99;100.00;100530.27;108499;1251;71243;-79
2023/02/08 07:39:16;;;;;;;149.90;63.80;;;;;;;-2.18;100.00;100535.85;106992;1256;61333;-79
2023/02/08 07:41:43;;;;;;;140.90;66.40;;;;;;;-2.33;100.00;100540.93;108015;1256;60140;-79
2023/02/08 07:44:09;;;;;;;122.50;60.70;;;;;;;-2.41;100.00;100540.91;106530;1251;61243;-79
2023/02/08 07:46:36;;;;;;;133.30;62.30;;;;;;;-2.48;100.00;100535.70;107117;1251;72466;-78
2023/02/08 07:49:02;;;;;;;113.90;55.10;;;;;;;-2.47;100.00;100539.21;107065;1251;61336;-78
2023/02/08 07:51:29;;;;;;;123.00;59.40;;;;;;;-2.57;100.00;100539.29;108166;1251;61240;-79
2023/02/08 07:53:55;;;;;;;149.70;70.50;;;;;;;-2.59;100.00;100540.33;108199;1251;60192;-79
2023/02/08 07:56:22;;;;;;;164.90;80.00;;;;;;;-2.55;100.00;100540.20;106621;1257;61225;-78
2023/02/08 07:58:48;;;;;;;170.60;78.40;;;;;;;-2.51;100.00;100537.96;107382;1256;61135;-79
2023/02/08 08:01:15;;;;;;;192.10;81.50;;;;;;;-2.48;100.00;100537.81;107856;1251;61248;-79
2023/02/08 08:03:42;;;;;;;187.90;87.70;;;;;;;-2.48;100.00;100541.25;108510;1251;72692;-78
2023/02/08 08:06:08;;;;;;;185.80;88.40;;;;;;;-2.53;100.00;100538.16;107223;1251;61202;-78
2023/02/08 08:08:35;;;;;;;184.90;85.10;;;;;;;-2.53;100.00;100540.79;106817;1255;61244;-79
2023/02/08 08:11:01;;;;;;;185.30;87.30;;;;;;;-2.51;100.00;100545.17;106925;1251;59310;-78
2023/02/08 08:13:28;;;;;;;164.50;86.30;;;;;;;-2.50;100.00;100551.46;108590;1251;59002;-79
2023/02/08 08:15:54;;;;;;;162.20;83.80;;;;;;;-2.45;100.00;100550.34;107846;1251;61330;-77
2023/02/08 08:18:20;;;;;;;344.20;161.50;;;;;;;-2.36;100.00;100551.46;107502;1251;61145;-78
2023/02/08 08:20:47;;;;;;;214.10;102.70;;;;;;;-2.29;100.00;100551.52;109033;1251;59663;-77
2023/02/08 08:23:15;;;;;;;155.70;70.70;;;;;;;-2.21;100.00;100556.38;107625;1251;61225;-77
2023/02/08 08:25:42;;;;;;;102.80;47.30;;;;;;;-2.16;100.00;100554.14;107195;1251;71043;-77
2023/02/08 08:28:08;;;;;;;68.20;36.40;;;;;;;-2.14;100.00;100548.24;106767;1251;72518;-76
2023/02/08 08:30:34;;;;;;;64.40;30.00;;;;;;;-2.08;100.00;100553.77;107550;1251;61167;-77
2023/02/08 08:33:01;;;;;;;74.70;33.50;;;;;;;-2.04;100.00;100552.48;109061;1251;59731;-77
2023/02/08 08:35:28;;;;;;;70.20;34.40;;;;;;;-1.97;100.00;100554.52;108523;1251;73455;-77
2023/02/08 08:37:54;;;;;;;77.20;34.30;;;;;;;-1.92;100.00;100556.23;106471;1254;72754;-76
2023/02/08 08:40:21;;;;;;;71.60;33.60;;;;;;;-1.86;100.00;100553.59;107652;1251;61292;-77
2023/02/08 08:42:47;;;;;;;73.60;33.70;;;;;;;-1.81;100.00;100553.61;107247;1251;59508;-76
2023/02/08 08:45:15;;;;;;;81.30;37.60;;;;;;;-1.75;100.00;100556.91;107408;1251;61215;-77
2023/02/08 08:47:41;;;;;;;70.10;32.90;;;;;;;-1.66;100.00;100558.69;106432;1254;74549;-76
2023/02/08 08:50:08;;;;;;;84.10;38.30;;;;;;;-1.59;100.00;100562.44;106875;1251;61231;-77
2023/02/08 08:52:34;;;;;;;74.60;33.10;;;;;;;-1.53;100.00;100567.23;107261;1254;71394;-76
2023/02/08 08:55:01;;;;;;;69.70;34.90;;;;;;;-1.46;100.00;100570.95;107621;1251;61125;-76
2023/02/08 08:57:27;;;;;;;63.90;31.40;;;;;;;-1.39;100.00;100570.19;106361;1256;61114;-77
2023/02/08 08:59:54;;;;;;;58.30;27.30;;;;;;;-1.19;100.00;100569.89;106474;1251;62327;-76
2023/02/08 09:02:20;;;;;;;58.50;27.60;;;;;;;-0.95;100.00;100573.00;106683;1251;61294;-79
2023/02/08 09:04:47;;;;;;;64.00;28.00;;;;;;;-0.58;100.00;100571.79;107548;1251;72883;-79
2023/02/08 09:07:14;;;;;;;58.40;27.50;;;;;;;-0.16;100.00;100570.41;106885;1251;61253;-78
2023/02/08 09:09:40;;;;;;;49.10;23.60;;;;;;;0.18;100.00;100571.52;106684;1252;61962;-78
2023/02/08 09:12:07;;;;;;;53.90;26.10;;;;;;;0.53;100.00;100574.48;107121;1251;61247;-79
2023/02/08 09:14:33;;;;;;;61.00;27.60;;;;;;;0.73;100.00;100576.14;106596;1251;61217;-78
2023/02/08 09:17:00;;;;;;;55.90;27.10;;;;;;;0.86;100.00;100577.48;107278;1255;61346;-78
2023/02/08 09:19:27;;;;;;;54.30;28.90;;;;;;;0.99;100.00;100576.69;106796;1251;61119;-78
2023/02/08 09:21:56;;;;;;;55.30;28.80;;;;;;;0.98;100.00;100578.05;107754;1251;60765;-78
2023/02/08 09:24:23;;;;;;;50.60;26.30;;;;;;;0.92;100.00;100577.83;107855;1251;73413;-78
2023/02/08 09:26:49;;;;;;;60.10;29.70;;;;;;;0.75;100.00;100583.61;106478;1251;70444;-78
2023/02/08 09:29:16;;;;;;;52.40;24.70;;;;;;;0.67;100.00;100584.64;106654;1251;61235;-78
2023/02/08 09:31:42;;;;;;;67.40;32.40;;;;;;;0.51;100.00;100586.36;107199;1251;61314;-78
2023/02/08 09:34:09;;;;;;;68.40;32.50;;;;;;;0.47;100.00;100589.29;107974;1251;61266;-79
2023/02/08 09:36:37;;;;;;;115.20;45.50;;;;;;;0.45;100.00;100584.17;106717;1251;61326;-78
2023/02/08 09:39:18;;;;;;;53.00;25.60;;;;;;;0.45;100.00;100586.48;107139;1256;70934;-78
2023/02/08 09:42:04;;;;;;;44.50;21.30;;;;;;;0.55;100.00;100590.06;106713;1253;72221;-78
2023/02/08 09:44:38;;;;;;;47.90;23.00;;;;;;;0.70;100.00;100587.47;107037;1251;61141;-77
2023/02/08 09:47:32;;;;;;;35.00;18.00;;;;;;;0.86;99.48;100586.64;106571;1254;61311;-78
2023/02/08 09:50:13;;;;;;;175.00;69.70;;;;;;;0.93;98.43;100583.95;106595;1252;73495;-78
2023/02/08 09:52:45;;;;;;;66.70;34.60;;;;;;;1.17;99.84;100586.10;107089;1254;72646;-78
2023/02/08 09:55:19;;;;;;;309.00;130.80;;;;;;;1.29;100.00;100582.01;107671;1254;71423;-77
2023/02/08 09:57:46;;;;;;;76.00;38.40;;;;;;;1.14;93.54;100579.82;106323;1256;61343;-78
2023/02/08 10:00:15;;;;;;;51.00;28.10;;;;;;;0.96;90.81;100579.54;106701;1251;61542;-78
2023/02/08 10:02:42;;;;;;;40.60;20.80;;;;;;;0.83;89.60;100587.48;107246;1253;74566;-77
2023/02/08 10:05:11;;;;;;;26.30;12.10;;;;;;;0.58;87.31;100586.42;106722;1253;71025;-77
2023/02/08 10:07:38;;;;;;;24.80;12.00;;;;;;;0.41;86.38;100581.13;106334;1253;71512;-77
2023/02/08 10:10:07;;;;;;;24.00;13.10;;;;;;;0.60;90.87;100584.61;106385;1259;62298;-78
2023/02/08 10:12:52;;;;;;;19.90;8.40;;;;;;;0.56;89.32;100583.02;107131;1253;60184;-77
2023/02/08 10:15:40;;;;;;;16.40;8.90;;;;;;;0.60;90.02;100587.64;107978;1253;74500;-78
2023/02/08 10:18:42;;;;;;;18.70;8.70;;;;;;;0.65;92.76;100584.75;106499;1256;69813;-78
2023/02/08 10:21:16;;;;;;;18.10;10.60;;;;;;;0.65;92.78;100580.72;106544;1253;72602;-78
2023/02/08 10:23:50;;;;;;;20.50;10.20;;;;;;;0.54;90.09;100581.95;107789;1252;61100;-78
2023/02/08 10:26:31;;;;;;;21.30;10.60;;;;;;;0.50;91.32;100575.81;106852;1254;61160;-77
2023/02/08 10:29:17;;;;;;;22.70;13.30;;;;;;;0.54;94.26;100573.65;106810;1252;74050;-78
2023/02/08 10:32:11;;;;;;;48.30;24.60;;;;;;;0.52;94.34;100573.48;108054;1253;70964;-78
2023/02/08 10:34:44;;;;;;;44.10;18.50;;;;;;;0.53;94.48;100579.22;106788;1253;72751;-78
2023/02/08 10:37:29;;;;;;;46.40;22.70;;;;;;;0.45;92.95;100581.45;106287;1253;61246;-78
2023/02/08 10:39:55;;;;;;;60.30;28.00;;;;;;;0.48;94.28;100582.36;106768;1257;61214;-78
2023/02/08 10:42:22;;;;;;;36.00;20.00;;;;;;;0.55;93.07;100584.59;106939;1253;74463;-79
2023/02/08 10:44:57;;;;;;;22.70;12.30;;;;;;;0.28;88.13;100579.46;108057;1254;71045;-79
2023/02/08 10:47:38;;;;;;;48.90;18.90;;;;;;;0.44;91.08;100574.80;106664;1253;71447;-78
2023/02/08 10:50:30;;;;;;;108.30;38.20;;;;;;;0.64;93.57;100573.52;107465;1253;60138;-78
2023/02/08 10:52:57;;;;;;;65.00;26.30;;;;;;;0.82;94.00;100574.33;107304;1254;61244;-79
2023/02/08 10:55:24;;;;;;;37.40;20.70;;;;;;;0.85;90.22;100569.14;107526;1254;74493;-78
2023/02/08 10:57:52;;;;;;;47.70;28.60;;;;;;;0.87;88.97;100566.76;106543;1256;71021;-78
2023/02/08 11:00:21;;;;;;;36.20;20.30;;;;;;;0.96;89.76;100563.86;107122;1253;71817;-78
2023/02/08 11:02:49;;;;;;;47.50;21.80;;;;;;;1.06;90.49;100564.13;106755;1256;61346;-78